createdAt,value
2019-05-12T00:02:07.584Z,100553.88
2019-05-12T00:04:34.081Z,100553.01
2019-05-12T00:07:00.792Z,100563.83
2019-05-12T00:09:28.429Z,100568.14
2019-05-12T00:11:55.348Z,100568.76
2019-05-12T00:14:22.035Z,100573.13
2019-05-12T00:16:49.183Z,100580.91
2019-05-12T00:19:17.942Z,100579.63
2019-05-12T00:21:44.628Z,100575.02
2019-05-12T00:24:11.346Z,100573.81
2019-05-12T00:26:38.649Z,100577.59
2019-05-12T00:29:07.552Z,100580.48
2019-05-12T00:31:34.203Z,100582.74
2019-05-12T00:34:01.180Z,100588.27
2019-05-12T00:36:29.269Z,100592.28
2019-05-12T00:38:58.018Z,100589.17
2019-05-12T00:41:24.770Z,100596.16
2019-05-12T00:43:51.734Z,100606.15
2019-05-12T00:46:18.538Z,100613.87
2019-05-12T00:48:45.201Z,100623.69
2019-05-12T00:51:11.939Z,100623.84
2019-05-12T00:53:43.133Z,100623.84
2019-05-12T00:56:08.450Z,100625.84
2019-05-12T00:58:35.312Z,100625.84
2019-05-12T01:01:22.704Z,100616.45
2019-05-12T01:03:49.493Z,100622.17
2019-05-12T01:06:17.793Z,100625.82
2019-05-12T01:08:44.605Z,100629.81
2019-05-12T01:11:12.664Z,100628.72
2019-05-12T01:13:39.430Z,100632.34
2019-05-12T01:16:08.088Z,100637.56
2019-05-12T01:18:35.220Z,100651.23
2019-05-12T01:21:01.918Z,100650.08
2019-05-12T01:23:28.689Z,100651.08
2019-05-12T01:25:58.292Z,100649.31
2019-05-12T01:28:24.222Z,100658.55
2019-05-12T01:30:53.005Z,100646.39
2019-05-12T01:33:19.707Z,100654.80
2019-05-12T01:35:48.308Z,100662.50
2019-05-12T01:38:15.205Z,100664.22
2019-05-12T01:40:41.897Z,100664.22
2019-05-12T01:43:09.056Z,100664.20
2019-05-12T01:45:37.985Z,100680.48
2019-05-12T01:48:04.493Z,100673.08
2019-05-12T01:50:31.269Z,100688.28
2019-05-12T01:52:59.037Z,100703.38
2019-05-12T01:55:28.073Z,100703.38
2019-05-12T01:57:54.643Z,100709.81
2019-05-12T02:00:21.666Z,100709.81
2019-05-12T02:02:48.363Z,100713.19
2019-05-12T02:05:15.148Z,100714.78
2019-05-12T02:07:48.050Z,100721.91
2019-05-12T02:10:17.817Z,100721.81
2019-05-12T02:12:44.005Z,100728.59
2019-05-12T02:15:10.817Z,100737.46
2019-05-12T02:17:39.122Z,100727.52
2019-05-12T02:20:07.868Z,100743.27
2019-05-12T02:22:34.581Z,100747.27
2019-05-12T02:25:01.360Z,100748.81
2019-05-12T02:27:28.414Z,100749.29
2019-05-12T02:30:13.030Z,100753.07
2019-05-12T02:32:48.454Z,100765.82
2019-05-12T02:35:08.801Z,100772.78
2019-05-12T02:37:36.069Z,100774.67
2019-05-12T02:40:06.898Z,100774.67
2019-05-12T02:42:34.871Z,100778.55
2019-05-12T02:45:05.215Z,100770.22
2019-05-12T02:47:34.461Z,100759.41
2019-05-12T02:50:05.348Z,100785.19
2019-05-12T02:52:34.724Z,100782.05
2019-05-12T02:55:05.788Z,100794.28
2019-05-12T02:57:34.351Z,100794.28
2019-05-12T03:00:00.878Z,100796.05
2019-05-12T03:02:30.042Z,100811.73
2019-05-12T03:05:19.777Z,100807.73
2019-05-12T03:07:48.453Z,100806.88
2019-05-12T03:10:15.319Z,100823.83
2019-05-12T03:12:44.975Z,100814.16
2019-05-12T03:15:14.853Z,100811.41
2019-05-12T03:17:39.559Z,100814.65
2019-05-12T03:20:06.447Z,100815.31
2019-05-12T03:22:35.253Z,100822.98
2019-05-12T03:25:13.396Z,100828.58
2019-05-12T03:27:30.276Z,100830.48
2019-05-12T03:29:56.860Z,100821.66
2019-05-12T03:32:27.570Z,100826.41
2019-05-12T03:34:57.365Z,100832.69
2019-05-12T03:37:21.060Z,100832.69
2019-05-12T03:39:47.925Z,100838.83
2019-05-12T03:42:14.680Z,100846.31
2019-05-12T03:44:44.449Z,100846.31
2019-05-12T03:47:10.296Z,100859.73
2019-05-12T03:49:37.047Z,100860.13
2019-05-12T03:52:05.081Z,100860.13
2019-05-12T03:54:34.962Z,100866.48
2019-05-12T03:57:00.785Z,100874.06
2019-05-12T03:59:27.483Z,100874.25
2019-05-12T04:01:55.144Z,100879.48
2019-05-12T04:04:24.471Z,100877.67
2019-05-12T04:06:50.654Z,100886.91
2019-05-12T04:09:17.216Z,100891.16
2019-05-12T04:11:44.501Z,100898.80
2019-05-12T04:14:14.515Z,100905.88
2019-05-12T04:16:39.980Z,100913.47
2019-05-12T04:19:06.670Z,100913.73
2019-05-12T04:21:34.997Z,100913.52
2019-05-12T04:24:05.061Z,100918.48
2019-05-12T04:26:30.645Z,100926.12
2019-05-12T04:28:57.230Z,100930.12
2019-05-12T04:31:25.063Z,100932.31
2019-05-12T04:33:54.725Z,100926.84
2019-05-12T04:36:20.617Z,100934.50
2019-05-12T04:38:47.410Z,100940.15
2019-05-12T04:41:14.700Z,100942.33
2019-05-12T04:43:44.539Z,100932.37
2019-05-12T04:46:10.315Z,100944.14
2019-05-12T04:48:36.885Z,100947.83
2019-05-12T04:51:05.040Z,100944.90
2019-05-12T04:53:34.928Z,100945.45
2019-05-12T04:56:10.751Z,100951.44
2019-05-12T04:58:29.233Z,100950.47
2019-05-12T05:00:55.995Z,100953.30
2019-05-12T05:03:24.709Z,100948.09
2019-05-12T05:05:51.369Z,100953.38
2019-05-12T05:08:19.754Z,100959.52
2019-05-12T05:10:46.518Z,100965.44
2019-05-12T05:13:14.974Z,100971.30
2019-05-12T05:15:43.993Z,100974.39
2019-05-12T05:18:10.374Z,100992.75
2019-05-12T05:20:37.055Z,100983.48
2019-05-12T05:23:03.935Z,100987.46
2019-05-12T05:25:30.916Z,100995.89
2019-05-12T05:27:57.684Z,100997.20
2019-05-12T05:30:24.419Z,100999.08
2019-05-12T05:32:51.034Z,101003.13
2019-05-12T05:35:17.717Z,101001.16
2019-05-12T05:37:44.430Z,100997.70
2019-05-12T05:40:13.865Z,100989.47
2019-05-12T05:42:39.902Z,101006.97
2019-05-12T05:45:10.031Z,101005.56
2019-05-12T05:47:35.486Z,101017.02
2019-05-12T05:50:04.634Z,101023.21
2019-05-12T05:52:38.516Z,101030.59
2019-05-12T05:54:59.652Z,101028.28
2019-05-12T05:57:29.755Z,101038.34
2019-05-12T05:59:54.703Z,101029.20
2019-05-12T06:02:23.163Z,101031.14
2019-05-12T06:04:53.215Z,101035.72
2019-05-12T06:07:23.912Z,101025.62
2019-05-12T06:09:47.386Z,101037.33
2019-05-12T06:12:14.215Z,101037.09
2019-05-12T06:14:41.058Z,101037.28
2019-05-12T06:17:07.778Z,101043.86
2019-05-12T06:19:34.391Z,101046.38
2019-05-12T06:22:04.032Z,101054.73
2019-05-12T06:24:33.338Z,101040.86
2019-05-12T06:27:00.723Z,101048.09
2019-05-12T06:29:27.619Z,101042.58
2019-05-12T06:31:54.378Z,101047.05
2019-05-12T06:34:21.251Z,101044.50
2019-05-12T06:36:47.822Z,101054.50
2019-05-12T06:39:19.068Z,101052.09
2019-05-12T06:41:44.413Z,101052.19
2019-05-12T06:44:14.988Z,101051.66
2019-05-12T06:46:39.960Z,101067.30
2019-05-12T06:49:12.762Z,101066.63
2019-05-12T06:51:35.300Z,101072.80
2019-05-12T06:54:07.421Z,101080.89
2019-05-12T06:56:30.636Z,101083.29
2019-05-12T06:59:01.090Z,101094.34
2019-05-12T07:01:25.913Z,101089.91
2019-05-12T07:03:53.361Z,101099.90
2019-05-12T07:06:20.381Z,101106.92
2019-05-12T07:08:47.062Z,101106.15
2019-05-12T07:11:14.310Z,101110.18
2019-05-12T07:13:43.840Z,101120.47
2019-05-12T07:16:16.668Z,101108.94
2019-05-12T07:18:44.846Z,101117.02
2019-05-12T07:21:17.845Z,101121.50
2019-05-12T07:23:40.835Z,101121.43
2019-05-12T07:26:17.599Z,101119.42
2019-05-12T07:28:40.156Z,101123.33
2019-05-12T07:31:04.871Z,101122.89
2019-05-12T07:33:32.837Z,101135.50
2019-05-12T07:36:05.824Z,101137.12
2019-05-12T07:38:31.420Z,101134.75
2019-05-12T07:41:00.738Z,101138.75
2019-05-12T07:43:27.975Z,101143.27
2019-05-12T07:46:02.167Z,101143.27
2019-05-12T07:48:24.898Z,101157.58
2019-05-12T07:50:58.464Z,101154.94
2019-05-12T07:53:20.285Z,101150.97
2019-05-12T07:55:49.361Z,101150.41
2019-05-12T07:58:19.208Z,101153.48
2019-05-12T08:00:44.460Z,101153.11
2019-05-12T08:03:16.025Z,101151.80
2019-05-12T08:05:39.752Z,101168.77
2019-05-12T08:08:10.689Z,101171.25
2019-05-12T08:10:35.232Z,101166.64
2019-05-12T08:13:04.098Z,101163.80
2019-05-12T08:15:30.585Z,101157.71
2019-05-12T08:17:59.527Z,101145.20
2019-05-12T08:20:25.747Z,101149.99
2019-05-12T08:22:54.144Z,101151.73
2019-05-12T08:25:27.401Z,101144.78
2019-05-12T08:27:51.969Z,101157.90
2019-05-12T08:30:24.025Z,101151.56
2019-05-12T08:32:56.351Z,101144.73
2019-05-12T08:35:29.613Z,101146.14
2019-05-12T08:37:48.309Z,101137.52
2019-05-12T08:40:15.627Z,101135.93
2019-05-12T08:42:43.673Z,101146.53
2019-05-12T08:45:15.286Z,101149.63
2019-05-12T08:47:39.492Z,101152.50
2019-05-12T08:50:06.694Z,101152.30
2019-05-12T08:52:37.248Z,101138.20
2019-05-12T08:55:04.277Z,101145.11
2019-05-12T08:57:32.581Z,101152.20
2019-05-12T09:00:02.719Z,101162.58
2019-05-12T09:02:28.188Z,101168.03
2019-05-12T09:04:55.763Z,101177.01
2019-05-12T09:07:24.279Z,101175.14
2019-05-12T09:09:53.351Z,101168.23
2019-05-12T09:12:23.347Z,101153.52
2019-05-12T09:14:50.094Z,101163.48
2019-05-12T09:17:16.775Z,101183.45
2019-05-12T09:19:43.715Z,101190.77
2019-05-12T09:22:20.404Z,101187.45
2019-05-12T09:24:39.247Z,101177.38
2019-05-12T09:27:08.806Z,101182.66
2019-05-12T09:29:34.709Z,101171.06
2019-05-12T09:32:07.359Z,101169.63
2019-05-12T09:34:30.171Z,101176.58
2019-05-12T09:36:59.532Z,101169.22
2019-05-12T09:39:25.518Z,101178.02
2019-05-12T09:41:54.813Z,101183.70
2019-05-12T09:44:26.340Z,101195.58
2019-05-12T09:46:49.408Z,101192.69
2019-05-12T09:49:16.177Z,101196.36
2019-05-12T09:51:45.774Z,101194.52
2019-05-12T09:54:13.392Z,101182.82
2019-05-12T09:56:41.299Z,101191.95
2019-05-12T09:59:18.095Z,101196.38
2019-05-12T10:01:39.687Z,101209.56
2019-05-12T10:04:10.371Z,101199.86
2019-05-12T10:06:35.376Z,101199.87
2019-05-12T10:09:08.953Z,101198.81
2019-05-12T10:11:33.212Z,101192.31
2019-05-12T10:14:00.282Z,101207.89
2019-05-12T10:16:28.492Z,101195.23
2019-05-12T10:18:56.466Z,101195.73
2019-05-12T10:21:23.770Z,101210.43
2019-05-12T10:23:51.517Z,101208.85
2019-05-12T10:26:41.219Z,101213.75
2019-05-12T10:29:17.460Z,101228.53
2019-05-12T10:31:39.371Z,101226.61
2019-05-12T10:34:20.824Z,101229.23
2019-05-12T10:36:49.150Z,101236.58
2019-05-12T10:39:16.516Z,101242.60
2019-05-12T10:41:44.442Z,101235.42
2019-05-12T10:44:13.700Z,101227.77
2019-05-12T10:46:42.373Z,101216.63
2019-05-12T10:49:08.500Z,101213.23
2019-05-12T10:51:35.182Z,101210.30
2019-05-12T10:54:12.119Z,101226.98
2019-05-12T10:56:31.426Z,101242.47
2019-05-12T10:58:58.089Z,101234.68
2019-05-12T11:01:24.785Z,101239.44
2019-05-12T11:03:52.281Z,101223.02
2019-05-12T11:06:19.204Z,101227.01
2019-05-12T11:08:47.309Z,101231.59
2019-05-12T11:11:15.587Z,101238.23
2019-05-12T11:13:46.201Z,101242.69
2019-05-12T11:16:14.005Z,101245.96
2019-05-12T11:18:39.653Z,101178.98
2019-05-12T11:21:06.246Z,101242.27
2019-05-12T11:23:34.504Z,101228.02
2019-05-12T11:26:03.721Z,101229.97
2019-05-12T11:28:30.279Z,101242.22
2019-05-12T11:30:58.919Z,101239.45
2019-05-12T11:33:25.685Z,101239.14
2019-05-12T11:35:54.153Z,101246.33
2019-05-12T11:38:21.147Z,101258.34
2019-05-12T11:40:47.838Z,101245.23
2019-05-12T11:43:14.671Z,101242.00
2019-05-12T11:45:41.420Z,101240.64
2019-05-12T11:48:10.170Z,101247.25
2019-05-12T11:50:40.362Z,101249.81
2019-05-12T11:53:05.291Z,101246.61
2019-05-12T11:55:34.669Z,101246.17
2019-05-12T11:58:06.709Z,101237.64
2019-05-12T12:00:33.460Z,101241.85
2019-05-12T12:03:03.819Z,101250.73
2019-05-12T12:05:28.447Z,101261.38
2019-05-12T12:07:56.119Z,101254.27
2019-05-12T12:10:23.474Z,101235.25
2019-05-12T12:12:50.315Z,101252.55
2019-05-12T12:15:20.297Z,101254.84
2019-05-12T12:17:45.910Z,101240.61
2019-05-12T12:20:22.661Z,101246.95
2019-05-12T12:22:46.461Z,101246.94
2019-05-12T12:25:15.832Z,101251.92
2019-05-12T12:27:44.288Z,101235.70
2019-05-12T12:30:18.835Z,101234.66
2019-05-12T12:32:40.908Z,101234.66
2019-05-12T12:35:11.898Z,101250.39
2019-05-12T12:37:36.388Z,101252.02
2019-05-12T12:40:04.263Z,101260.44
2019-05-12T12:42:36.980Z,101268.79
2019-05-12T12:45:04.251Z,101277.48
2019-05-12T12:47:38.018Z,101290.38
2019-05-12T12:49:59.709Z,101306.93
2019-05-12T12:52:26.474Z,101307.09
2019-05-12T12:54:54.326Z,101305.05
2019-05-12T12:57:21.140Z,101319.44
2019-05-12T12:59:52.842Z,101317.54
2019-05-12T13:02:24.711Z,101314.61
2019-05-12T13:04:53.731Z,101317.95
2019-05-12T13:07:20.214Z,101324.00
2019-05-12T13:09:46.806Z,101318.42
2019-05-12T13:12:15.789Z,101322.63
2019-05-12T13:14:44.346Z,101325.36
2019-05-12T13:17:10.807Z,101325.15
2019-05-12T13:19:37.419Z,101336.20
2019-05-12T13:22:08.966Z,101331.61
2019-05-12T13:24:33.614Z,101327.59
2019-05-12T13:27:03.984Z,101319.03
2019-05-12T13:29:38.177Z,101318.89
2019-05-12T13:31:59.680Z,101313.89
2019-05-12T13:34:28.882Z,101310.71
2019-05-12T13:36:55.019Z,101328.63
2019-05-12T13:39:24.113Z,101331.28
2019-05-12T13:41:56.251Z,101335.30
2019-05-12T13:44:19.388Z,101338.07
2019-05-12T13:46:48.883Z,101346.53
2019-05-12T13:49:14.694Z,101352.55
2019-05-12T13:51:43.044Z,101353.62
2019-05-12T13:54:10.100Z,101358.55
2019-05-12T13:56:36.792Z,101357.84
2019-05-12T13:59:04.194Z,101364.31
2019-05-12T14:01:39.657Z,101370.02
2019-05-12T14:03:59.860Z,101374.38
2019-05-12T14:06:32.198Z,101372.06
2019-05-12T14:08:55.272Z,101379.28
2019-05-12T14:11:23.850Z,101373.64
2019-05-12T14:13:50.616Z,101378.38
2019-05-12T14:16:17.460Z,101376.13
2019-05-12T14:18:44.428Z,101378.94
2019-05-12T14:21:13.977Z,101378.99
2019-05-12T14:23:43.468Z,101378.42
2019-05-12T14:26:09.533Z,101382.63
2019-05-12T14:28:39.576Z,101385.84
2019-05-12T14:31:04.568Z,101380.33
2019-05-12T14:33:35.724Z,101391.55
2019-05-12T14:35:59.703Z,101382.98
2019-05-12T14:38:29.687Z,101383.16
2019-05-12T14:40:55.033Z,101382.91
2019-05-12T14:43:23.971Z,101375.93
2019-05-12T14:45:50.476Z,101376.37
2019-05-12T14:48:17.252Z,101380.31
2019-05-12T14:50:44.285Z,101389.14
2019-05-12T14:53:11.061Z,101381.83
2019-05-12T14:55:38.604Z,101375.53
2019-05-12T14:58:09.140Z,101372.42
2019-05-12T15:00:34.332Z,101371.59
2019-05-12T15:03:05.509Z,101369.45
2019-05-12T15:05:29.740Z,101369.41
2019-05-12T15:08:00.216Z,101369.88
2019-05-12T15:10:25.254Z,101374.03
2019-05-12T15:12:54.200Z,101383.55
2019-05-12T15:15:20.904Z,101379.03
2019-05-12T15:17:47.676Z,101379.41
2019-05-12T15:20:14.481Z,101381.73
2019-05-12T15:22:45.216Z,101383.97
2019-05-12T15:25:09.942Z,101377.92
2019-05-12T15:27:44.768Z,101366.36
2019-05-12T15:30:19.018Z,101371.87
2019-05-12T15:32:34.954Z,101374.81
2019-05-12T15:35:01.769Z,101376.68
2019-05-12T15:37:28.933Z,101383.23
2019-05-12T15:39:56.922Z,101381.84
2019-05-12T15:42:23.760Z,101381.38
2019-05-12T15:44:50.425Z,101389.87
2019-05-12T15:47:17.254Z,101396.30
2019-05-12T15:49:44.309Z,101400.67
2019-05-12T15:52:14.019Z,101408.47
2019-05-12T15:54:45.758Z,101419.84
2019-05-12T15:57:08.747Z,101415.91
2019-05-12T15:59:35.432Z,101417.86
2019-05-12T16:02:12.333Z,101419.55
2019-05-12T16:04:34.671Z,101418.59
2019-05-12T16:06:59.395Z,101425.40
2019-05-12T16:09:26.206Z,101420.45
2019-05-12T16:11:52.894Z,101416.30
2019-05-12T16:14:19.463Z,101424.21
2019-05-12T16:16:47.129Z,101423.21
2019-05-12T16:19:14.714Z,101424.92
2019-05-12T16:21:45.322Z,101418.67
2019-05-12T16:24:11.313Z,101424.34
2019-05-12T16:26:42.991Z,101416.88
2019-05-12T16:29:07.669Z,101410.66
2019-05-12T16:31:39.362Z,101423.88
2019-05-12T16:34:06.047Z,101417.30
2019-05-12T16:36:33.715Z,101420.81
2019-05-12T16:39:00.393Z,101431.28
2019-05-12T16:41:29.785Z,101421.20
2019-05-12T16:43:55.672Z,101425.42
2019-05-12T16:46:23.524Z,101430.36
2019-05-12T16:48:54.557Z,101424.63
2019-05-12T16:51:19.061Z,101425.28
2019-05-12T16:53:45.841Z,101430.78
2019-05-12T16:56:14.768Z,101423.89
2019-05-12T16:58:43.380Z,101422.98
2019-05-12T17:01:09.765Z,101426.03
2019-05-12T17:03:36.506Z,101420.34
2019-05-12T17:06:03.661Z,101425.31
2019-05-12T17:08:30.525Z,101436.39
2019-05-12T17:11:15.157Z,101429.39
2019-05-12T17:13:25.913Z,101436.67
2019-05-12T17:15:55.388Z,101440.89
2019-05-12T17:18:24.419Z,101440.13
2019-05-12T17:20:51.139Z,101450.59
2019-05-12T17:23:18.008Z,101451.36
2019-05-12T17:25:44.683Z,101453.85
2019-05-12T17:28:13.256Z,101453.14
2019-05-12T17:30:40.118Z,101459.20
2019-05-12T17:33:06.866Z,101461.69
2019-05-12T17:35:34.836Z,101453.20
2019-05-12T17:38:04.081Z,101464.52
2019-05-12T17:40:30.586Z,101470.61
2019-05-12T17:43:05.625Z,101477.55
2019-05-12T17:45:26.096Z,101492.13
2019-05-12T17:47:56.905Z,101490.52
2019-05-12T17:50:21.331Z,101484.45
2019-05-12T17:52:50.564Z,101489.34
2019-05-12T17:55:16.759Z,101483.23
2019-05-12T17:57:44.235Z,101493.97
2019-05-12T18:00:11.332Z,101488.98
2019-05-12T18:02:38.011Z,101489.73
2019-05-12T18:05:07.674Z,101491.98
2019-05-12T18:07:34.349Z,101493.16
2019-05-12T18:10:01.188Z,101513.14
2019-05-12T18:12:36.672Z,101507.34
2019-05-12T18:14:56.546Z,101513.78
2019-05-12T18:17:23.732Z,101515.00
2019-05-12T18:19:59.044Z,101521.95
2019-05-12T18:22:20.482Z,101533.36
2019-05-12T18:24:50.745Z,101529.72
2019-05-12T18:27:15.777Z,101526.49
2019-05-12T18:29:44.168Z,101540.34
2019-05-12T18:32:13.635Z,101545.20
2019-05-12T18:34:39.955Z,101545.73
2019-05-12T18:37:06.756Z,101559.20
2019-05-12T18:39:34.400Z,101552.16
2019-05-12T18:42:03.566Z,101554.17
2019-05-12T18:44:31.604Z,101563.91
2019-05-12T18:46:58.539Z,101568.19
2019-05-12T18:49:25.228Z,101572.52
2019-05-12T18:51:55.054Z,101571.83
2019-05-12T18:54:20.727Z,101572.39
2019-05-12T18:56:52.499Z,101582.61
2019-05-12T18:59:16.536Z,101589.92
2019-05-12T19:01:43.687Z,101589.52
2019-05-12T19:04:10.584Z,101591.78
2019-05-12T19:06:37.246Z,101586.77
2019-05-12T19:09:06.526Z,101585.60
2019-05-12T19:11:41.789Z,101592.23
2019-05-12T19:14:04.192Z,101593.94
2019-05-12T19:16:30.532Z,101595.92
2019-05-12T19:18:57.405Z,101605.94
2019-05-12T19:21:24.138Z,101607.16
2019-05-12T19:23:50.722Z,101608.33
2019-05-12T19:26:17.592Z,101613.62
2019-05-12T19:28:52.951Z,101611.70
2019-05-12T19:31:14.242Z,101614.84
2019-05-12T19:33:44.016Z,101618.79
2019-05-12T19:36:09.877Z,101616.86
2019-05-12T19:38:36.953Z,101621.52
2019-05-12T19:41:04.646Z,101626.86
2019-05-12T19:43:33.849Z,101631.95
2019-05-12T19:46:03.403Z,101637.19
2019-05-12T19:48:28.962Z,101646.86
2019-05-12T19:50:57.132Z,101644.87
2019-05-12T19:53:24.213Z,101646.31
2019-05-12T19:55:50.863Z,101650.34
2019-05-12T19:58:17.573Z,101641.55
2019-05-12T20:00:44.291Z,101655.88
2019-05-12T20:03:13.686Z,101645.78
2019-05-12T20:05:39.683Z,101651.64
2019-05-12T20:08:06.442Z,101658.61
2019-05-12T20:10:38.059Z,101657.76
2019-05-12T20:13:03.937Z,101656.87
2019-05-12T20:15:36.807Z,101660.25
2019-05-12T20:17:59.492Z,101664.80
2019-05-12T20:20:35.781Z,101669.96
2019-05-12T20:22:54.849Z,101672.62
2019-05-12T20:25:23.667Z,101680.58
2019-05-12T20:27:56.141Z,101683.89
2019-05-12T20:30:21.085Z,101690.73
2019-05-12T20:32:47.640Z,101640.59
2019-05-12T20:35:17.033Z,101693.98
2019-05-12T20:37:53.123Z,101701.54
2019-05-12T20:40:14.293Z,101706.12
2019-05-12T20:42:44.189Z,101705.36
2019-05-12T20:45:09.667Z,101707.13
2019-05-12T20:47:39.054Z,101707.50
2019-05-12T20:50:06.826Z,101717.70
2019-05-12T20:52:34.203Z,101714.31
2019-05-12T20:55:03.509Z,101713.97
2019-05-12T20:57:29.660Z,101721.27
2019-05-12T20:59:58.237Z,101725.80
2019-05-12T21:02:28.273Z,101722.38
2019-05-12T21:05:00.847Z,101717.77
2019-05-12T21:07:26.828Z,101722.00
2019-05-12T21:09:51.969Z,101728.55
2019-05-12T21:12:24.065Z,101731.83
2019-05-12T21:14:51.855Z,101740.19
2019-05-12T21:17:19.153Z,101747.60
2019-05-12T21:19:55.698Z,101745.33
2019-05-12T21:22:14.545Z,101740.12
2019-05-12T21:24:43.746Z,101742.08
2019-05-12T21:27:17.916Z,101747.64
2019-05-12T21:29:38.897Z,101747.91
2019-05-12T21:32:12.290Z,101753.09
2019-05-12T21:34:35.429Z,101747.20
2019-05-12T21:37:04.635Z,101758.19
2019-05-12T21:39:30.787Z,101765.05
2019-05-12T21:41:57.545Z,101756.88
2019-05-12T21:44:24.633Z,101760.51
2019-05-12T21:46:59.412Z,101762.09
2019-05-12T21:49:20.041Z,101771.66
2019-05-12T21:51:50.387Z,101776.85
2019-05-12T21:54:15.470Z,101768.40
2019-05-12T21:56:44.722Z,101780.34
2019-05-12T21:59:12.832Z,101782.66
2019-05-12T22:01:45.511Z,101787.09
2019-05-12T22:04:11.559Z,101789.19
2019-05-12T22:06:40.279Z,101789.43
2019-05-12T22:09:07.279Z,101795.64
2019-05-12T22:11:42.237Z,101792.86
2019-05-12T22:14:07.341Z,101796.03
2019-05-12T22:16:43.281Z,101794.81
2019-05-12T22:19:05.194Z,101798.02
2019-05-12T22:21:43.616Z,101798.39
2019-05-12T22:24:06.224Z,101798.98
2019-05-12T22:26:39.638Z,101800.20
2019-05-12T22:29:01.250Z,101806.92
2019-05-12T22:31:27.832Z,101811.27
2019-05-12T22:33:56.385Z,101810.00
2019-05-12T22:36:26.947Z,101809.09
2019-05-12T22:39:00.524Z,101809.56
2019-05-12T22:41:20.767Z,101817.67
2019-05-12T22:43:47.453Z,101816.83
2019-05-12T22:46:16.515Z,101815.32
2019-05-12T22:48:45.243Z,101812.67
2019-05-12T22:51:23.142Z,101819.87
2019-05-12T22:53:40.716Z,101811.73
2019-05-12T22:56:12.137Z,101814.88
2019-05-12T22:58:35.994Z,101815.22
2019-05-12T23:01:05.174Z,101815.22
2019-05-12T23:03:31.585Z,101819.73
2019-05-12T23:06:01.533Z,101830.05
2019-05-12T23:08:26.651Z,101823.87
2019-05-12T23:10:55.649Z,101829.87
2019-05-12T23:13:23.828Z,101829.54
2019-05-12T23:15:50.615Z,101826.84
2019-05-12T23:18:25.229Z,101824.61
2019-05-12T23:20:47.926Z,101827.83
2019-05-12T23:23:18.707Z,101829.49
2019-05-12T23:25:44.117Z,101832.17
2019-05-12T23:28:11.084Z,101828.02
2019-05-12T23:30:37.882Z,101831.53
2019-05-12T23:33:04.585Z,101838.53
2019-05-12T23:35:37.761Z,101838.30
2019-05-12T23:38:00.107Z,101831.92
2019-05-12T23:40:26.882Z,101843.98
2019-05-12T23:42:53.683Z,101832.66
2019-05-12T23:45:20.483Z,101835.30
2019-05-12T23:47:47.095Z,101838.80
2019-05-12T23:50:14.348Z,101846.53
2019-05-12T23:52:43.750Z,101839.33
2019-05-12T23:55:10.232Z,101836.23
2019-05-12T23:57:36.899Z,101828.88
